Brushy, Illinois
Current Conditions -  °F | °C
As of 8:55 PM on Monday 22 Dec 2014 (Local Time) from KHSB Reporting Station
Light Rain Light Rain  
Wind Chill: 50°   Ceiling: 1400
Heat Index: 50°   Visibility: 7mi
Dew Point: 50°   Wind: 10mph
Humidity: 100%   Direction: 150°SSE
Pressure: 29.61"   Gusts: NA
Location:  37.8301°N, 88.6284°W
Report Text: KHSB 230255Z AUTO 15009KT 7SM -RA SCT008 BKN014 OVC018 10/10 A2961 RMK AO2 P0002 60002 T01020102
Loading
Personal Weather Stations






























Interactive Weather Map New forecast layout! Learn more

10-Day Weather Forecast

Advertisements
Track Severe Weather on mobile